sensor_id;sensor_type;location;lat;lon;timestamp;P1;durP1;ratioP1;P2;durP2;ratioP2
49978;SDS011;35869;50.990;6.962;2023-05-20T00:03:44;3.28;;;1.25;;
49978;SDS011;35869;50.990;6.962;2023-05-20T00:08:44;4.47;;;1.20;;
49978;SDS011;35869;50.990;6.962;2023-05-20T00:13:44;1.77;;;1.20;;
49978;SDS011;35869;50.990;6.962;2023-05-20T00:18:44;1.98;;;1.27;;
49978;SDS011;35869;50.990;6.962;2023-05-20T00:23:45;2.45;;;1.33;;
49978;SDS011;35869;50.990;6.962;2023-05-20T00:28:45;1.80;;;1.35;;
49978;SDS011;35869;50.990;6.962;2023-05-20T00:33:45;2.63;;;1.67;;
49978;SDS011;35869;50.990;6.962;2023-05-20T00:38:46;3.23;;;1.70;;
49978;SDS011;35869;50.990;6.962;2023-05-20T00:43:46;3.33;;;1.70;;
49978;SDS011;35869;50.990;6.962;2023-05-20T00:48:46;2.55;;;1.58;;
49978;SDS011;35869;50.990;6.962;2023-05-20T00:53:46;2.40;;;1.10;;
49978;SDS011;35869;50.990;6.962;2023-05-20T00:58:48;2.22;;;1.25;;
49978;SDS011;35869;50.990;6.962;2023-05-20T01:03:50;3.83;;;1.35;;
49978;SDS011;35869;50.990;6.962;2023-05-20T01:08:50;2.38;;;1.30;;
49978;SDS011;35869;50.990;6.962;2023-05-20T01:13:53;3.25;;;1.15;;
49978;SDS011;35869;50.990;6.962;2023-05-20T01:18:56;2.20;;;1.30;;
49978;SDS011;35869;50.990;6.962;2023-05-20T01:23:58;2.38;;;1.20;;
49978;SDS011;35869;50.990;6.962;2023-05-20T01:28:58;2.22;;;1.48;;
49978;SDS011;35869;50.990;6.962;2023-05-20T01:33:58;1.98;;;1.50;;
49978;SDS011;35869;50.990;6.962;2023-05-20T01:38:59;2.97;;;1.30;;
49978;SDS011;35869;50.990;6.962;2023-05-20T01:44:01;3.35;;;1.25;;
49978;SDS011;35869;50.990;6.962;2023-05-20T01:49:01;3.20;;;1.55;;
49978;SDS011;35869;50.990;6.962;2023-05-20T01:54:02;3.72;;;1.50;;
49978;SDS011;35869;50.990;6.962;2023-05-20T01:59:02;2.53;;;1.50;;
49978;SDS011;35869;50.990;6.962;2023-05-20T02:04:02;1.48;;;1.25;;
49978;SDS011;35869;50.990;6.962;2023-05-20T02:09:02;3.00;;;1.60;;
49978;SDS011;35869;50.990;6.962;2023-05-20T02:14:03;2.22;;;2.03;;
49978;SDS011;35869;50.990;6.962;2023-05-20T02:19:03;4.68;;;2.60;;
49978;SDS011;35869;50.990;6.962;2023-05-20T02:24:03;2.85;;;1.80;;
49978;SDS011;35869;50.990;6.962;2023-05-20T02:29:04;3.83;;;1.90;;
49978;SDS011;35869;50.990;6.962;2023-05-20T02:34:04;1.92;;;1.70;;
49978;SDS011;35869;50.990;6.962;2023-05-20T02:39:04;1.67;;;1.40;;
49978;SDS011;35869;50.990;6.962;2023-05-20T02:44:04;3.25;;;1.60;;
49978;SDS011;35869;50.990;6.962;2023-05-20T02:49:04;3.58;;;1.85;;
49978;SDS011;35869;50.990;6.962;2023-05-20T02:54:05;2.95;;;1.50;;
49978;SDS011;35869;50.990;6.962;2023-05-20T02:59:05;4.20;;;2.00;;
49978;SDS011;35869;50.990;6.962;2023-05-20T03:04:05;5.13;;;1.80;;
49978;SDS011;35869;50.990;6.962;2023-05-20T03:09:05;3.90;;;1.85;;
49978;SDS011;35869;50.990;6.962;2023-05-20T03:14:05;5.13;;;1.70;;
49978;SDS011;35869;50.990;6.962;2023-05-20T03:19:06;3.33;;;1.88;;
49978;SDS011;35869;50.990;6.962;2023-05-20T03:24:06;4.10;;;2.05;;
49978;SDS011;35869;50.990;6.962;2023-05-20T03:29:06;3.00;;;1.90;;
49978;SDS011;35869;50.990;6.962;2023-05-20T03:34:06;3.17;;;1.65;;
49978;SDS011;35869;50.990;6.962;2023-05-20T03:39:07;3.73;;;2.03;;
49978;SDS011;35869;50.990;6.962;2023-05-20T03:44:07;4.40;;;2.42;;
49978;SDS011;35869;50.990;6.962;2023-05-20T03:49:07;3.83;;;1.98;;
49978;SDS011;35869;50.990;6.962;2023-05-20T03:54:07;2.72;;;2.10;;
49978;SDS011;35869;50.990;6.962;2023-05-20T03:59:07;4.18;;;2.05;;
49978;SDS011;35869;50.990;6.962;2023-05-20T04:04:07;3.85;;;2.25;;
49978;SDS011;35869;50.990;6.962;2023-05-20T04:09:08;4.07;;;2.10;;
49978;SDS011;35869;50.990;6.962;2023-05-20T04:14:08;2.58;;;2.00;;
49978;SDS011;35869;50.990;6.962;2023-05-20T04:19:08;5.43;;;2.75;;
49978;SDS011;35869;50.990;6.962;2023-05-20T04:24:08;4.68;;;3.08;;
49978;SDS011;35869;50.990;6.962;2023-05-20T04:29:09;4.40;;;2.75;;
49978;SDS011;35869;50.990;6.962;2023-05-20T04:34:09;4.50;;;2.47;;
49978;SDS011;35869;50.990;6.962;2023-05-20T04:39:09;2.85;;;2.53;;
49978;SDS011;35869;50.990;6.962;2023-05-20T04:44:09;3.42;;;2.10;;
49978;SDS011;35869;50.990;6.962;2023-05-20T04:49:09;3.47;;;2.75;;
49978;SDS011;35869;50.990;6.962;2023-05-20T04:54:10;4.20;;;2.17;;
49978;SDS011;35869;50.990;6.962;2023-05-20T04:59:10;4.05;;;2.45;;
49978;SDS011;35869;50.990;6.962;2023-05-20T05:04:10;4.68;;;2.58;;
49978;SDS011;35869;50.990;6.962;2023-05-20T05:09:10;3.30;;;2.80;;
49978;SDS011;35869;50.990;6.962;2023-05-20T05:14:10;3.88;;;2.30;;
49978;SDS011;35869;50.990;6.962;2023-05-20T05:19:11;4.28;;;2.53;;
49978;SDS011;35869;50.990;6.962;2023-05-20T05:24:11;3.05;;;2.45;;
49978;SDS011;35869;50.990;6.962;2023-05-20T05:29:11;3.22;;;2.50;;
49978;SDS011;35869;50.990;6.962;2023-05-20T05:34:11;3.78;;;2.20;;
49978;SDS011;35869;50.990;6.962;2023-05-20T05:39:14;2.25;;;2.05;;
49978;SDS011;35869;50.990;6.962;2023-05-20T05:44:14;3.65;;;2.28;;
49978;SDS011;35869;50.990;6.962;2023-05-20T05:49:14;4.00;;;2.55;;
49978;SDS011;35869;50.990;6.962;2023-05-20T05:54:14;4.82;;;2.35;;
49978;SDS011;35869;50.990;6.962;2023-05-20T05:59:15;3.05;;;2.50;;
49978;SDS011;35869;50.990;6.962;2023-05-20T06:04:15;5.55;;;2.55;;
49978;SDS011;35869;50.990;6.962;2023-05-20T06:09:15;2.80;;;1.90;;
49978;SDS011;35869;50.990;6.962;2023-05-20T06:14:15;2.40;;;2.20;;
49978;SDS011;35869;50.990;6.962;2023-05-20T06:19:16;5.13;;;2.53;;
49978;SDS011;35869;50.990;6.962;2023-05-20T06:24:16;4.05;;;2.72;;
49978;SDS011;35869;50.990;6.962;2023-05-20T06:29:16;4.57;;;2.20;;
49978;SDS011;35869;50.990;6.962;2023-05-20T06:34:16;4.53;;;2.10;;
49978;SDS011;35869;50.990;6.962;2023-05-20T06:39:17;4.50;;;2.08;;
49978;SDS011;35869;50.990;6.962;2023-05-20T06:44:17;3.03;;;2.22;;
49978;SDS011;35869;50.990;6.962;2023-05-20T06:49:17;4.32;;;1.80;;
49978;SDS011;35869;50.990;6.962;2023-05-20T06:54:18;2.45;;;1.92;;
49978;SDS011;35869;50.990;6.962;2023-05-20T06:59:18;3.60;;;1.73;;
49978;SDS011;35869;50.990;6.962;2023-05-20T07:04:18;3.03;;;1.80;;
49978;SDS011;35869;50.990;6.962;2023-05-20T07:09:18;5.35;;;2.05;;
49978;SDS011;35869;50.990;6.962;2023-05-20T07:14:19;3.13;;;2.17;;
49978;SDS011;35869;50.990;6.962;2023-05-20T07:19:19;3.22;;;2.58;;
49978;SDS011;35869;50.990;6.962;2023-05-20T07:24:19;3.58;;;2.60;;
49978;SDS011;35869;50.990;6.962;2023-05-20T07:29:19;3.30;;;2.17;;
49978;SDS011;35869;50.990;6.962;2023-05-20T07:39:20;4.07;;;2.20;;
49978;SDS011;35869;50.990;6.962;2023-05-20T07:44:20;4.65;;;2.55;;
49978;SDS011;35869;50.990;6.962;2023-05-20T07:49:20;4.78;;;2.50;;
49978;SDS011;35869;50.990;6.962;2023-05-20T07:59:21;2.63;;;2.38;;
49978;SDS011;35869;50.990;6.962;2023-05-20T08:09:22;4.97;;;2.60;;
49978;SDS011;35869;50.990;6.962;2023-05-20T08:14:22;2.78;;;2.08;;
49978;SDS011;35869;50.990;6.962;2023-05-20T08:19:22;4.27;;;2.10;;
49978;SDS011;35869;50.990;6.962;2023-05-20T08:24:22;3.07;;;1.90;;
49978;SDS011;35869;50.990;6.962;2023-05-20T08:29:23;2.50;;;2.23;;
49978;SDS011;35869;50.990;6.962;2023-05-20T08:34:23;3.33;;;2.42;;
49978;SDS011;35869;50.990;6.962;2023-05-20T08:39:24;3.17;;;2.20;;
49978;SDS011;35869;50.990;6.962;2023-05-20T08:44:24;4.15;;;2.33;;
49978;SDS011;35869;50.990;6.962;2023-05-20T08:49:26;3.65;;;2.40;;
49978;SDS011;35869;50.990;6.962;2023-05-20T08:54:35;3.40;;;2.27;;
49978;SDS011;35869;50.990;6.962;2023-05-20T08:59:44;2.20;;;2.05;;
49978;SDS011;35869;50.990;6.962;2023-05-20T09:04:45;4.30;;;2.60;;
49978;SDS011;35869;50.990;6.962;2023-05-20T09:09:45;2.95;;;2.00;;
49978;SDS011;35869;50.990;6.962;2023-05-20T09:14:46;3.67;;;2.53;;
49978;SDS011;35869;50.990;6.962;2023-05-20T09:19:49;3.50;;;2.57;;
49978;SDS011;35869;50.990;6.962;2023-05-20T09:24:50;3.50;;;3.00;;
49978;SDS011;35869;50.990;6.962;2023-05-20T09:29:50;3.58;;;2.50;;
49978;SDS011;35869;50.990;6.962;2023-05-20T09:34:51;3.08;;;2.63;;
49978;SDS011;35869;50.990;6.962;2023-05-20T09:39:54;3.00;;;2.30;;
49978;SDS011;35869;50.990;6.962;2023-05-20T09:44:55;6.47;;;3.47;;
49978;SDS011;35869;50.990;6.962;2023-05-20T09:49:55;3.28;;;2.60;;
49978;SDS011;35869;50.990;6.962;2023-05-20T09:54:56;2.72;;;2.42;;
49978;SDS011;35869;50.990;6.962;2023-05-20T09:59:57;4.88;;;2.80;;
49978;SDS011;35869;50.990;6.962;2023-05-20T10:04:58;3.15;;;2.58;;
49978;SDS011;35869;50.990;6.962;2023-05-20T10:10:10;3.28;;;2.38;;
49978;SDS011;35869;50.990;6.962;2023-05-20T10:15:29;2.92;;;2.17;;
49978;SDS011;35869;50.990;6.962;2023-05-20T10:20:32;2.50;;;2.30;;
49978;SDS011;35869;50.990;6.962;2023-05-20T10:25:32;4.05;;;2.42;;
49978;SDS011;35869;50.990;6.962;2023-05-20T10:30:32;2.92;;;2.42;;
49978;SDS011;35869;50.990;6.962;2023-05-20T10:35:32;5.30;;;2.17;;
49978;SDS011;35869;50.990;6.962;2023-05-20T10:40:33;3.20;;;2.72;;
49978;SDS011;35869;50.990;6.962;2023-05-20T10:45:33;2.60;;;2.40;;
49978;SDS011;35869;50.990;6.962;2023-05-20T10:50:34;2.30;;;2.05;;
49978;SDS011;35869;50.990;6.962;2023-05-20T10:55:36;6.30;;;2.53;;
49978;SDS011;35869;50.990;6.962;2023-05-20T11:00:37;3.50;;;2.40;;
49978;SDS011;35869;50.990;6.962;2023-05-20T11:05:38;3.35;;;2.50;;
49978;SDS011;35869;50.990;6.962;2023-05-20T11:10:38;4.28;;;2.33;;
49978;SDS011;35869;50.990;6.962;2023-05-20T11:15:38;4.23;;;2.90;;
49978;SDS011;35869;50.990;6.962;2023-05-20T11:20:39;4.00;;;3.13;;
49978;SDS011;35869;50.990;6.962;2023-05-20T11:25:39;4.40;;;3.25;;
49978;SDS011;35869;50.990;6.962;2023-05-20T11:30:41;3.53;;;3.00;;
49978;SDS011;35869;50.990;6.962;2023-05-20T11:35:43;6.30;;;2.65;;
49978;SDS011;35869;50.990;6.962;2023-05-20T11:40:45;3.88;;;3.47;;
49978;SDS011;35869;50.990;6.962;2023-05-20T11:45:57;3.90;;;3.38;;
49978;SDS011;35869;50.990;6.962;2023-05-20T11:50:57;4.93;;;3.30;;
49978;SDS011;35869;50.990;6.962;2023-05-20T11:55:58;8.07;;;3.67;;
49978;SDS011;35869;50.990;6.962;2023-05-20T12:00:59;5.18;;;3.35;;
49978;SDS011;35869;50.990;6.962;2023-05-20T12:06:02;4.30;;;3.60;;
49978;SDS011;35869;50.990;6.962;2023-05-20T12:11:02;3.88;;;3.33;;
49978;SDS011;35869;50.990;6.962;2023-05-20T12:16:03;4.32;;;3.33;;
49978;SDS011;35869;50.990;6.962;2023-05-20T12:21:03;3.53;;;3.22;;
49978;SDS011;35869;50.990;6.962;2023-05-20T12:26:03;3.97;;;3.58;;
49978;SDS011;35869;50.990;6.962;2023-05-20T12:31:04;7.00;;;3.37;;
49978;SDS011;35869;50.990;6.962;2023-05-20T12:36:04;3.17;;;2.72;;
49978;SDS011;35869;50.990;6.962;2023-05-20T12:41:05;5.23;;;3.53;;
49978;SDS011;35869;50.990;6.962;2023-05-20T12:46:05;3.63;;;3.33;;
49978;SDS011;35869;50.990;6.962;2023-05-20T12:51:05;3.57;;;3.27;;
49978;SDS011;35869;50.990;6.962;2023-05-20T12:56:05;3.40;;;3.10;;
49978;SDS011;35869;50.990;6.962;2023-05-20T13:01:06;6.93;;;3.13;;
49978;SDS011;35869;50.990;6.962;2023-05-20T13:06:06;3.35;;;2.70;;
49978;SDS011;35869;50.990;6.962;2023-05-20T13:11:06;3.85;;;3.45;;
49978;SDS011;35869;50.990;6.962;2023-05-20T13:16:07;4.45;;;3.10;;
49978;SDS011;35869;50.990;6.962;2023-05-20T13:21:07;4.53;;;2.70;;
49978;SDS011;35869;50.990;6.962;2023-05-20T13:26:07;3.95;;;2.72;;
49978;SDS011;35869;50.990;6.962;2023-05-20T13:31:08;4.78;;;3.40;;
49978;SDS011;35869;50.990;6.962;2023-05-20T13:36:08;6.00;;;3.17;;
49978;SDS011;35869;50.990;6.962;2023-05-20T13:41:08;3.03;;;2.60;;
49978;SDS011;35869;50.990;6.962;2023-05-20T13:46:08;4.13;;;2.80;;
49978;SDS011;35869;50.990;6.962;2023-05-20T13:51:09;3.38;;;2.88;;
49978;SDS011;35869;50.990;6.962;2023-05-20T13:56:09;2.90;;;2.60;;
49978;SDS011;35869;50.990;6.962;2023-05-20T14:01:09;5.25;;;2.50;;
49978;SDS011;35869;50.990;6.962;2023-05-20T14:06:10;2.75;;;2.55;;
49978;SDS011;35869;50.990;6.962;2023-05-20T14:11:11;3.55;;;2.97;;
49978;SDS011;35869;50.990;6.962;2023-05-20T14:16:11;5.47;;;2.55;;
49978;SDS011;35869;50.990;6.962;2023-05-20T14:21:11;2.97;;;2.70;;
49978;SDS011;35869;50.990;6.962;2023-05-20T14:26:11;3.33;;;2.80;;
49978;SDS011;35869;50.990;6.962;2023-05-20T14:31:12;4.65;;;2.45;;
49978;SDS011;35869;50.990;6.962;2023-05-20T14:36:12;4.00;;;2.85;;
49978;SDS011;35869;50.990;6.962;2023-05-20T14:41:12;4.05;;;2.50;;
49978;SDS011;35869;50.990;6.962;2023-05-20T14:46:13;2.72;;;2.42;;
49978;SDS011;35869;50.990;6.962;2023-05-20T14:51:14;3.73;;;3.13;;
49978;SDS011;35869;50.990;6.962;2023-05-20T14:56:14;3.58;;;2.65;;
49978;SDS011;35869;50.990;6.962;2023-05-20T15:01:14;3.83;;;2.75;;
49978;SDS011;35869;50.990;6.962;2023-05-20T15:06:14;3.70;;;2.45;;
49978;SDS011;35869;50.990;6.962;2023-05-20T15:11:15;2.90;;;2.58;;
49978;SDS011;35869;50.990;6.962;2023-05-20T15:16:15;3.63;;;2.65;;
49978;SDS011;35869;50.990;6.962;2023-05-20T15:21:16;6.95;;;3.03;;
49978;SDS011;35869;50.990;6.962;2023-05-20T15:26:16;2.88;;;2.67;;
49978;SDS011;35869;50.990;6.962;2023-05-20T15:31:16;2.88;;;2.45;;
49978;SDS011;35869;50.990;6.962;2023-05-20T15:36:16;2.60;;;2.40;;
49978;SDS011;35869;50.990;6.962;2023-05-20T15:41:17;2.77;;;2.33;;
49978;SDS011;35869;50.990;6.962;2023-05-20T15:46:17;3.30;;;2.90;;
49978;SDS011;35869;50.990;6.962;2023-05-20T15:51:17;6.18;;;2.60;;
49978;SDS011;35869;50.990;6.962;2023-05-20T15:56:18;3.63;;;2.80;;
49978;SDS011;35869;50.990;6.962;2023-05-20T16:01:18;7.53;;;2.88;;
49978;SDS011;35869;50.990;6.962;2023-05-20T16:06:18;5.68;;;2.53;;
49978;SDS011;35869;50.990;6.962;2023-05-20T16:11:19;3.40;;;3.03;;
49978;SDS011;35869;50.990;6.962;2023-05-20T16:16:19;3.97;;;3.07;;
49978;SDS011;35869;50.990;6.962;2023-05-20T16:21:19;3.42;;;3.13;;
49978;SDS011;35869;50.990;6.962;2023-05-20T16:26:20;4.53;;;3.07;;
49978;SDS011;35869;50.990;6.962;2023-05-20T16:31:20;3.75;;;3.03;;
49978;SDS011;35869;50.990;6.962;2023-05-20T16:36:20;4.25;;;3.00;;
49978;SDS011;35869;50.990;6.962;2023-05-20T16:41:20;3.37;;;2.90;;
49978;SDS011;35869;50.990;6.962;2023-05-20T16:46:21;5.07;;;3.03;;
49978;SDS011;35869;50.990;6.962;2023-05-20T16:51:21;3.33;;;3.03;;
49978;SDS011;35869;50.990;6.962;2023-05-20T16:56:23;4.20;;;2.97;;
49978;SDS011;35869;50.990;6.962;2023-05-20T17:01:24;3.97;;;2.75;;
49978;SDS011;35869;50.990;6.962;2023-05-20T17:06:24;4.63;;;2.80;;
49978;SDS011;35869;50.990;6.962;2023-05-20T17:11:24;5.10;;;3.28;;
49978;SDS011;35869;50.990;6.962;2023-05-20T17:16:24;4.78;;;2.67;;
49978;SDS011;35869;50.990;6.962;2023-05-20T17:21:25;3.37;;;2.73;;
49978;SDS011;35869;50.990;6.962;2023-05-20T17:26:25;3.22;;;2.47;;
49978;SDS011;35869;50.990;6.962;2023-05-20T17:31:26;5.13;;;2.95;;
49978;SDS011;35869;50.990;6.962;2023-05-20T17:36:26;3.67;;;3.28;;
49978;SDS011;35869;50.990;6.962;2023-05-20T17:41:26;3.85;;;2.75;;
49978;SDS011;35869;50.990;6.962;2023-05-20T17:46:26;3.92;;;3.40;;
49978;SDS011;35869;50.990;6.962;2023-05-20T17:51:27;3.65;;;2.75;;
49978;SDS011;35869;50.990;6.962;2023-05-20T17:56:27;5.13;;;3.17;;
49978;SDS011;35869;50.990;6.962;2023-05-20T18:01:27;5.10;;;2.97;;
49978;SDS011;35869;50.990;6.962;2023-05-20T18:06:27;5.32;;;3.20;;
49978;SDS011;35869;50.990;6.962;2023-05-20T18:11:28;5.00;;;3.17;;
49978;SDS011;35869;50.990;6.962;2023-05-20T18:16:28;5.50;;;3.47;;
49978;SDS011;35869;50.990;6.962;2023-05-20T18:21:29;4.57;;;2.97;;
49978;SDS011;35869;50.990;6.962;2023-05-20T18:26:29;4.13;;;3.60;;
49978;SDS011;35869;50.990;6.962;2023-05-20T18:31:29;7.03;;;3.65;;
49978;SDS011;35869;50.990;6.962;2023-05-20T18:36:29;4.60;;;3.85;;
49978;SDS011;35869;50.990;6.962;2023-05-20T18:41:29;4.85;;;3.50;;
49978;SDS011;35869;50.990;6.962;2023-05-20T18:46:30;4.63;;;3.75;;
49978;SDS011;35869;50.990;6.962;2023-05-20T18:51:30;3.88;;;3.28;;
49978;SDS011;35869;50.990;6.962;2023-05-20T18:56:30;4.25;;;3.53;;
49978;SDS011;35869;50.990;6.962;2023-05-20T19:01:30;4.45;;;3.95;;
49978;SDS011;35869;50.990;6.962;2023-05-20T19:06:31;6.50;;;4.03;;
49978;SDS011;35869;50.990;6.962;2023-05-20T19:11:31;4.20;;;3.78;;
49978;SDS011;35869;50.990;6.962;2023-05-20T19:16:32;7.90;;;4.30;;
49978;SDS011;35869;50.990;6.962;2023-05-20T19:21:32;4.43;;;4.03;;
49978;SDS011;35869;50.990;6.962;2023-05-20T19:26:32;5.20;;;4.15;;
49978;SDS011;35869;50.990;6.962;2023-05-20T19:31:33;5.85;;;4.18;;
49978;SDS011;35869;50.990;6.962;2023-05-20T19:36:33;4.93;;;4.25;;
49978;SDS011;35869;50.990;6.962;2023-05-20T19:41:33;5.38;;;4.32;;
49978;SDS011;35869;50.990;6.962;2023-05-20T19:46:34;5.03;;;4.47;;
49978;SDS011;35869;50.990;6.962;2023-05-20T19:51:35;9.45;;;4.85;;
49978;SDS011;35869;50.990;6.962;2023-05-20T19:56:35;5.43;;;4.93;;
49978;SDS011;35869;50.990;6.962;2023-05-20T20:01:35;6.20;;;4.93;;
49978;SDS011;35869;50.990;6.962;2023-05-20T20:06:35;5.45;;;4.57;;
49978;SDS011;35869;50.990;6.962;2023-05-20T20:11:35;4.87;;;4.37;;
49978;SDS011;35869;50.990;6.962;2023-05-20T20:16:36;7.40;;;5.22;;
49978;SDS011;35869;50.990;6.962;2023-05-20T20:21:36;5.83;;;5.30;;
49978;SDS011;35869;50.990;6.962;2023-05-20T20:26:36;6.20;;;5.60;;
49978;SDS011;35869;50.990;6.962;2023-05-20T20:31:36;7.37;;;5.30;;
49978;SDS011;35869;50.990;6.962;2023-05-20T20:36:36;6.37;;;5.23;;
49978;SDS011;35869;50.990;6.962;2023-05-20T20:41:37;7.07;;;6.03;;
49978;SDS011;35869;50.990;6.962;2023-05-20T20:46:37;8.00;;;6.77;;
49978;SDS011;35869;50.990;6.962;2023-05-20T20:51:37;7.83;;;5.53;;
49978;SDS011;35869;50.990;6.962;2023-05-20T20:56:37;8.40;;;6.23;;
49978;SDS011;35869;50.990;6.962;2023-05-20T21:01:38;9.87;;;7.17;;
49978;SDS011;35869;50.990;6.962;2023-05-20T21:06:39;9.35;;;6.78;;
49978;SDS011;35869;50.990;6.962;2023-05-20T21:11:39;8.73;;;6.95;;
49978;SDS011;35869;50.990;6.962;2023-05-20T21:16:40;7.80;;;6.93;;
49978;SDS011;35869;50.990;6.962;2023-05-20T21:21:40;7.50;;;6.70;;
49978;SDS011;35869;50.990;6.962;2023-05-20T21:26:40;8.70;;;7.80;;
49978;SDS011;35869;50.990;6.962;2023-05-20T21:31:40;8.30;;;7.35;;
49978;SDS011;35869;50.990;6.962;2023-05-20T21:36:40;9.13;;;7.33;;
49978;SDS011;35869;50.990;6.962;2023-05-20T21:41:41;8.73;;;7.20;;
49978;SDS011;35869;50.990;6.962;2023-05-20T21:46:41;10.68;;;7.82;;
49978;SDS011;35869;50.990;6.962;2023-05-20T21:51:41;11.70;;;8.52;;
49978;SDS011;35869;50.990;6.962;2023-05-20T21:56:41;8.13;;;7.10;;
49978;SDS011;35869;50.990;6.962;2023-05-20T22:01:41;9.23;;;7.78;;
49978;SDS011;35869;50.990;6.962;2023-05-20T22:06:42;13.70;;;8.00;;
49978;SDS011;35869;50.990;6.962;2023-05-20T22:11:42;9.82;;;8.02;;
49978;SDS011;35869;50.990;6.962;2023-05-20T22:16:45;10.50;;;8.43;;
49978;SDS011;35869;50.990;6.962;2023-05-20T22:21:45;11.18;;;7.63;;
49978;SDS011;35869;50.990;6.962;2023-05-20T22:31:46;10.68;;;8.02;;
49978;SDS011;35869;50.990;6.962;2023-05-20T22:36:46;11.50;;;8.75;;
49978;SDS011;35869;50.990;6.962;2023-05-20T22:41:46;12.60;;;8.70;;
49978;SDS011;35869;50.990;6.962;2023-05-20T22:46:47;12.30;;;9.15;;
49978;SDS011;35869;50.990;6.962;2023-05-20T22:51:47;10.50;;;8.80;;
49978;SDS011;35869;50.990;6.962;2023-05-20T22:56:47;14.20;;;9.55;;
49978;SDS011;35869;50.990;6.962;2023-05-20T23:01:47;12.13;;;9.73;;
49978;SDS011;35869;50.990;6.962;2023-05-20T23:06:47;15.65;;;10.05;;
49978;SDS011;35869;50.990;6.962;2023-05-20T23:11:47;12.98;;;10.13;;
49978;SDS011;35869;50.990;6.962;2023-05-20T23:16:48;15.32;;;10.98;;
49978;SDS011;35869;50.990;6.962;2023-05-20T23:26:48;14.70;;;10.55;;
49978;SDS011;35869;50.990;6.962;2023-05-20T23:31:48;12.05;;;9.35;;
49978;SDS011;35869;50.990;6.962;2023-05-20T23:36:49;14.20;;;10.90;;
49978;SDS011;35869;50.990;6.962;2023-05-20T23:41:49;14.52;;;10.60;;
49978;SDS011;35869;50.990;6.962;2023-05-20T23:46:49;14.85;;;10.10;;
49978;SDS011;35869;50.990;6.962;2023-05-20T23:51:49;14.32;;;10.88;;
49978;SDS011;35869;50.990;6.962;2023-05-20T23:56:50;12.15;;;10.25;;
